sensor_id;sensor_type;location;lat;lon;timestamp;P1;durP1;ratioP1;P2;durP2;ratioP2
2177;SDS011;1095;50.992;6.798;2022-09-09T00:01:58;4.35;;;2.30;;
2177;SDS011;1095;50.992;6.798;2022-09-09T00:04:28;2.35;;;1.27;;
2177;SDS011;1095;50.992;6.798;2022-09-09T00:06:59;2.33;;;1.77;;
2177;SDS011;1095;50.992;6.798;2022-09-09T00:09:31;5.50;;;2.00;;
2177;SDS011;1095;50.992;6.798;2022-09-09T00:12:06;4.50;;;2.22;;
2177;SDS011;1095;50.992;6.798;2022-09-09T00:14:41;2.45;;;1.77;;
2177;SDS011;1095;50.992;6.798;2022-09-09T00:17:19;6.70;;;1.90;;
2177;SDS011;1095;50.992;6.798;2022-09-09T00:19:59;5.28;;;2.58;;
2177;SDS011;1095;50.992;6.798;2022-09-09T00:25:01;8.52;;;3.03;;
2177;SDS011;1095;50.992;6.798;2022-09-09T00:27:33;3.88;;;2.38;;
2177;SDS011;1095;50.992;6.798;2022-09-09T00:30:14;4.40;;;2.03;;
2177;SDS011;1095;50.992;6.798;2022-09-09T00:32:44;7.15;;;2.22;;
2177;SDS011;1095;50.992;6.798;2022-09-09T00:35:14;5.85;;;2.58;;
2177;SDS011;1095;50.992;6.798;2022-09-09T00:37:44;4.10;;;2.25;;
2177;SDS011;1095;50.992;6.798;2022-09-09T00:40:16;4.75;;;2.30;;
2177;SDS011;1095;50.992;6.798;2022-09-09T00:42:48;4.38;;;2.47;;
2177;SDS011;1095;50.992;6.798;2022-09-09T00:45:37;3.78;;;2.13;;
2177;SDS011;1095;50.992;6.798;2022-09-09T00:48:18;6.40;;;2.50;;
2177;SDS011;1095;50.992;6.798;2022-09-09T00:50:49;4.50;;;2.53;;
2177;SDS011;1095;50.992;6.798;2022-09-09T00:53:24;7.15;;;2.55;;
2177;SDS011;1095;50.992;6.798;2022-09-09T00:56:06;3.83;;;2.25;;
2177;SDS011;1095;50.992;6.798;2022-09-09T00:58:38;6.88;;;2.90;;
2177;SDS011;1095;50.992;6.798;2022-09-09T01:01:08;4.15;;;2.50;;
2177;SDS011;1095;50.992;6.798;2022-09-09T01:09:43;7.57;;;3.78;;
2177;SDS011;1095;50.992;6.798;2022-09-09T01:12:38;10.93;;;3.17;;
2177;SDS011;1095;50.992;6.798;2022-09-09T01:18:43;6.22;;;2.83;;
2177;SDS011;1095;50.992;6.798;2022-09-09T01:22:01;8.77;;;3.20;;
2177;SDS011;1095;50.992;6.798;2022-09-09T01:25:09;5.00;;;2.90;;
2177;SDS011;1095;50.992;6.798;2022-09-09T01:31:11;7.55;;;3.70;;
2177;SDS011;1095;50.992;6.798;2022-09-09T01:35:02;5.43;;;2.88;;
2177;SDS011;1095;50.992;6.798;2022-09-09T01:37:24;6.20;;;3.22;;
2177;SDS011;1095;50.992;6.798;2022-09-09T01:39:50;7.85;;;3.40;;
2177;SDS011;1095;50.992;6.798;2022-09-09T01:42:17;5.35;;;2.88;;
2177;SDS011;1095;50.992;6.798;2022-09-09T01:44:45;6.60;;;3.17;;
2177;SDS011;1095;50.992;6.798;2022-09-09T01:47:12;6.70;;;2.97;;
2177;SDS011;1095;50.992;6.798;2022-09-09T01:49:38;5.50;;;2.97;;
2177;SDS011;1095;50.992;6.798;2022-09-09T01:52:05;5.78;;;2.83;;
2177;SDS011;1095;50.992;6.798;2022-09-09T01:54:33;10.02;;;2.88;;
2177;SDS011;1095;50.992;6.798;2022-09-09T01:57:02;5.00;;;2.42;;
2177;SDS011;1095;50.992;6.798;2022-09-09T01:59:48;3.92;;;2.60;;
2177;SDS011;1095;50.992;6.798;2022-09-09T02:02:23;4.50;;;2.72;;
2177;SDS011;1095;50.992;6.798;2022-09-09T02:04:56;2.72;;;2.13;;
2177;SDS011;1095;50.992;6.798;2022-09-09T02:07:37;5.65;;;2.60;;
2177;SDS011;1095;50.992;6.798;2022-09-09T02:10:09;4.70;;;2.20;;
2177;SDS011;1095;50.992;6.798;2022-09-09T02:12:39;5.60;;;2.33;;
2177;SDS011;1095;50.992;6.798;2022-09-09T02:15:17;5.97;;;2.60;;
2177;SDS011;1095;50.992;6.798;2022-09-09T02:17:50;6.35;;;2.65;;
2177;SDS011;1095;50.992;6.798;2022-09-09T02:20:18;6.38;;;2.85;;
2177;SDS011;1095;50.992;6.798;2022-09-09T02:22:48;4.32;;;2.60;;
2177;SDS011;1095;50.992;6.798;2022-09-09T02:25:17;6.78;;;2.58;;
2177;SDS011;1095;50.992;6.798;2022-09-09T02:27:48;4.05;;;2.50;;
2177;SDS011;1095;50.992;6.798;2022-09-09T02:30:18;6.82;;;3.92;;
2177;SDS011;1095;50.992;6.798;2022-09-09T02:32:46;4.72;;;2.60;;
2177;SDS011;1095;50.992;6.798;2022-09-09T02:35:17;4.50;;;2.63;;
2177;SDS011;1095;50.992;6.798;2022-09-09T02:37:47;4.75;;;2.67;;
2177;SDS011;1095;50.992;6.798;2022-09-09T02:40:17;5.45;;;2.40;;
2177;SDS011;1095;50.992;6.798;2022-09-09T02:42:46;3.95;;;2.17;;
2177;SDS011;1095;50.992;6.798;2022-09-09T02:45:15;7.40;;;2.78;;
2177;SDS011;1095;50.992;6.798;2022-09-09T02:47:47;5.85;;;2.90;;
2177;SDS011;1095;50.992;6.798;2022-09-09T02:50:19;6.65;;;2.80;;
2177;SDS011;1095;50.992;6.798;2022-09-09T02:52:54;7.68;;;3.05;;
2177;SDS011;1095;50.992;6.798;2022-09-09T02:55:30;6.78;;;2.90;;
2177;SDS011;1095;50.992;6.798;2022-09-09T02:58:04;5.00;;;2.78;;
2177;SDS011;1095;50.992;6.798;2022-09-09T03:00:38;6.30;;;3.27;;
2177;SDS011;1095;50.992;6.798;2022-09-09T03:03:06;7.28;;;3.33;;
2177;SDS011;1095;50.992;6.798;2022-09-09T03:05:34;8.02;;;3.10;;
2177;SDS011;1095;50.992;6.798;2022-09-09T03:08:01;8.40;;;2.88;;
2177;SDS011;1095;50.992;6.798;2022-09-09T03:10:28;5.05;;;2.70;;
2177;SDS011;1095;50.992;6.798;2022-09-09T03:12:55;6.15;;;2.90;;
2177;SDS011;1095;50.992;6.798;2022-09-09T03:15:21;5.35;;;2.80;;
2177;SDS011;1095;50.992;6.798;2022-09-09T03:17:49;11.40;;;3.28;;
2177;SDS011;1095;50.992;6.798;2022-09-09T03:20:17;4.32;;;2.72;;
2177;SDS011;1095;50.992;6.798;2022-09-09T03:22:43;9.75;;;3.25;;
2177;SDS011;1095;50.992;6.798;2022-09-09T03:25:10;5.28;;;2.80;;
2177;SDS011;1095;50.992;6.798;2022-09-09T03:27:37;8.68;;;3.38;;
2177;SDS011;1095;50.992;6.798;2022-09-09T03:30:04;8.63;;;3.88;;
2177;SDS011;1095;50.992;6.798;2022-09-09T03:32:31;7.20;;;3.28;;
2177;SDS011;1095;50.992;6.798;2022-09-09T03:34:59;6.78;;;3.50;;
2177;SDS011;1095;50.992;6.798;2022-09-09T03:37:26;5.55;;;3.08;;
2177;SDS011;1095;50.992;6.798;2022-09-09T03:39:53;8.45;;;3.28;;
2177;SDS011;1095;50.992;6.798;2022-09-09T03:42:20;9.05;;;3.15;;
2177;SDS011;1095;50.992;6.798;2022-09-09T03:44:47;6.72;;;3.10;;
2177;SDS011;1095;50.992;6.798;2022-09-09T03:47:15;7.28;;;3.50;;
2177;SDS011;1095;50.992;6.798;2022-09-09T03:49:42;10.07;;;4.00;;
2177;SDS011;1095;50.992;6.798;2022-09-09T03:52:10;7.72;;;3.58;;
2177;SDS011;1095;50.992;6.798;2022-09-09T03:54:36;7.38;;;3.38;;
2177;SDS011;1095;50.992;6.798;2022-09-09T03:57:04;9.90;;;3.38;;
2177;SDS011;1095;50.992;6.798;2022-09-09T03:59:31;9.85;;;3.45;;
2177;SDS011;1095;50.992;6.798;2022-09-09T04:01:58;9.00;;;3.45;;
2177;SDS011;1095;50.992;6.798;2022-09-09T04:04:25;10.32;;;3.95;;
2177;SDS011;1095;50.992;6.798;2022-09-09T04:06:52;8.60;;;3.28;;
2177;SDS011;1095;50.992;6.798;2022-09-09T04:09:20;7.97;;;3.25;;
2177;SDS011;1095;50.992;6.798;2022-09-09T04:11:47;8.18;;;3.45;;
2177;SDS011;1095;50.992;6.798;2022-09-09T04:14:14;8.40;;;3.25;;
2177;SDS011;1095;50.992;6.798;2022-09-09T04:16:42;5.55;;;3.22;;
2177;SDS011;1095;50.992;6.798;2022-09-09T04:19:09;6.43;;;3.10;;
2177;SDS011;1095;50.992;6.798;2022-09-09T04:21:37;6.82;;;3.60;;
2177;SDS011;1095;50.992;6.798;2022-09-09T04:24:05;12.35;;;4.07;;
2177;SDS011;1095;50.992;6.798;2022-09-09T04:26:34;9.27;;;3.42;;
2177;SDS011;1095;50.992;6.798;2022-09-09T04:29:02;10.48;;;3.13;;
2177;SDS011;1095;50.992;6.798;2022-09-09T04:31:30;8.18;;;3.40;;
2177;SDS011;1095;50.992;6.798;2022-09-09T04:33:59;12.30;;;3.92;;
2177;SDS011;1095;50.992;6.798;2022-09-09T04:36:32;10.43;;;3.75;;
2177;SDS011;1095;50.992;6.798;2022-09-09T04:39:00;6.38;;;3.13;;
2177;SDS011;1095;50.992;6.798;2022-09-09T04:41:26;9.98;;;3.22;;
2177;SDS011;1095;50.992;6.798;2022-09-09T04:43:57;7.05;;;3.50;;
2177;SDS011;1095;50.992;6.798;2022-09-09T04:46:24;7.88;;;3.35;;
2177;SDS011;1095;50.992;6.798;2022-09-09T04:48:51;13.95;;;3.45;;
2177;SDS011;1095;50.992;6.798;2022-09-09T04:51:18;7.05;;;3.15;;
2177;SDS011;1095;50.992;6.798;2022-09-09T04:53:45;11.68;;;3.58;;
2177;SDS011;1095;50.992;6.798;2022-09-09T04:56:14;7.68;;;3.15;;
2177;SDS011;1095;50.992;6.798;2022-09-09T04:58:42;8.27;;;3.20;;
2177;SDS011;1095;50.992;6.798;2022-09-09T05:01:11;7.03;;;3.25;;
2177;SDS011;1095;50.992;6.798;2022-09-09T05:03:39;7.35;;;3.30;;
2177;SDS011;1095;50.992;6.798;2022-09-09T05:06:06;6.30;;;3.45;;
2177;SDS011;1095;50.992;6.798;2022-09-09T05:08:35;8.63;;;3.30;;
2177;SDS011;1095;50.992;6.798;2022-09-09T05:11:02;8.55;;;3.55;;
2177;SDS011;1095;50.992;6.798;2022-09-09T05:13:29;7.47;;;3.17;;
2177;SDS011;1095;50.992;6.798;2022-09-09T05:15:57;10.23;;;3.28;;
2177;SDS011;1095;50.992;6.798;2022-09-09T05:18:25;5.68;;;3.13;;
2177;SDS011;1095;50.992;6.798;2022-09-09T05:20:51;7.43;;;3.35;;
2177;SDS011;1095;50.992;6.798;2022-09-09T05:23:18;7.38;;;3.42;;
2177;SDS011;1095;50.992;6.798;2022-09-09T05:25:53;7.20;;;3.50;;
2177;SDS011;1095;50.992;6.798;2022-09-09T05:28:22;15.55;;;3.67;;
2177;SDS011;1095;50.992;6.798;2022-09-09T05:30:54;5.82;;;3.55;;
2177;SDS011;1095;50.992;6.798;2022-09-09T05:33:22;15.18;;;3.78;;
2177;SDS011;1095;50.992;6.798;2022-09-09T05:35:55;10.65;;;3.92;;
2177;SDS011;1095;50.992;6.798;2022-09-09T05:38:22;10.55;;;3.30;;
2177;SDS011;1095;50.992;6.798;2022-09-09T05:40:50;11.73;;;3.30;;
2177;SDS011;1095;50.992;6.798;2022-09-09T05:43:17;11.80;;;3.65;;
2177;SDS011;1095;50.992;6.798;2022-09-09T05:45:47;8.90;;;3.25;;
2177;SDS011;1095;50.992;6.798;2022-09-09T05:48:14;12.07;;;3.10;;
2177;SDS011;1095;50.992;6.798;2022-09-09T05:50:41;10.38;;;3.58;;
2177;SDS011;1095;50.992;6.798;2022-09-09T05:53:11;8.65;;;3.05;;
2177;SDS011;1095;50.992;6.798;2022-09-09T05:55:38;9.52;;;3.05;;
2177;SDS011;1095;50.992;6.798;2022-09-09T05:58:04;7.28;;;3.28;;
2177;SDS011;1095;50.992;6.798;2022-09-09T06:00:31;8.93;;;2.83;;
2177;SDS011;1095;50.992;6.798;2022-09-09T06:02:57;10.23;;;3.55;;
2177;SDS011;1095;50.992;6.798;2022-09-09T06:05:25;6.93;;;2.85;;
2177;SDS011;1095;50.992;6.798;2022-09-09T06:07:53;13.52;;;3.00;;
2177;SDS011;1095;50.992;6.798;2022-09-09T06:10:22;7.88;;;2.92;;
2177;SDS011;1095;50.992;6.798;2022-09-09T06:12:48;7.63;;;3.15;;
2177;SDS011;1095;50.992;6.798;2022-09-09T06:15:18;12.90;;;3.33;;
2177;SDS011;1095;50.992;6.798;2022-09-09T06:17:45;12.90;;;4.38;;
2177;SDS011;1095;50.992;6.798;2022-09-09T06:20:12;16.35;;;3.45;;
2177;SDS011;1095;50.992;6.798;2022-09-09T06:22:39;8.38;;;2.78;;
2177;SDS011;1095;50.992;6.798;2022-09-09T06:25:07;6.30;;;2.72;;
2177;SDS011;1095;50.992;6.798;2022-09-09T06:27:36;10.57;;;3.00;;
2177;SDS011;1095;50.992;6.798;2022-09-09T06:30:03;13.90;;;3.38;;
2177;SDS011;1095;50.992;6.798;2022-09-09T06:32:30;9.43;;;3.47;;
2177;SDS011;1095;50.992;6.798;2022-09-09T06:35:01;10.45;;;2.88;;
2177;SDS011;1095;50.992;6.798;2022-09-09T06:37:28;8.07;;;2.85;;
2177;SDS011;1095;50.992;6.798;2022-09-09T06:39:54;14.20;;;3.53;;
2177;SDS011;1095;50.992;6.798;2022-09-09T06:42:21;18.25;;;3.47;;
2177;SDS011;1095;50.992;6.798;2022-09-09T06:44:49;21.75;;;4.53;;
2177;SDS011;1095;50.992;6.798;2022-09-09T06:47:17;11.95;;;2.70;;
2177;SDS011;1095;50.992;6.798;2022-09-09T06:49:43;6.50;;;2.90;;
2177;SDS011;1095;50.992;6.798;2022-09-09T06:52:10;5.95;;;2.85;;
2177;SDS011;1095;50.992;6.798;2022-09-09T06:54:37;14.30;;;2.88;;
2177;SDS011;1095;50.992;6.798;2022-09-09T06:57:03;7.68;;;2.80;;
2177;SDS011;1095;50.992;6.798;2022-09-09T06:59:32;12.57;;;3.17;;
2177;SDS011;1095;50.992;6.798;2022-09-09T07:02:00;7.18;;;2.70;;
2177;SDS011;1095;50.992;6.798;2022-09-09T07:04:26;7.97;;;2.92;;
2177;SDS011;1095;50.992;6.798;2022-09-09T07:06:53;10.15;;;2.67;;
2177;SDS011;1095;50.992;6.798;2022-09-09T07:09:20;6.70;;;2.88;;
2177;SDS011;1095;50.992;6.798;2022-09-09T07:11:47;8.55;;;2.88;;
2177;SDS011;1095;50.992;6.798;2022-09-09T07:14:15;10.02;;;3.17;;
2177;SDS011;1095;50.992;6.798;2022-09-09T07:16:42;7.78;;;2.95;;
2177;SDS011;1095;50.992;6.798;2022-09-09T07:19:12;10.20;;;2.72;;
2177;SDS011;1095;50.992;6.798;2022-09-09T07:21:39;7.47;;;2.72;;
2177;SDS011;1095;50.992;6.798;2022-09-09T07:24:06;8.50;;;2.67;;
2177;SDS011;1095;50.992;6.798;2022-09-09T07:29:17;7.50;;;2.80;;
2177;SDS011;1095;50.992;6.798;2022-09-09T07:31:53;6.88;;;2.90;;
2177;SDS011;1095;50.992;6.798;2022-09-09T07:34:30;7.60;;;2.95;;
2177;SDS011;1095;50.992;6.798;2022-09-09T07:37:25;5.50;;;2.80;;
2177;SDS011;1095;50.992;6.798;2022-09-09T07:40:14;8.98;;;3.45;;
2177;SDS011;1095;50.992;6.798;2022-09-09T07:42:57;6.90;;;2.80;;
2177;SDS011;1095;50.992;6.798;2022-09-09T07:45:42;7.20;;;2.67;;
2177;SDS011;1095;50.992;6.798;2022-09-09T07:48:13;8.38;;;2.65;;
2177;SDS011;1095;50.992;6.798;2022-09-09T07:51:07;6.55;;;2.63;;
2177;SDS011;1095;50.992;6.798;2022-09-09T07:53:43;4.55;;;2.28;;
2177;SDS011;1095;50.992;6.798;2022-09-09T07:56:19;9.18;;;2.97;;
2177;SDS011;1095;50.992;6.798;2022-09-09T07:59:06;8.70;;;2.55;;
2177;SDS011;1095;50.992;6.798;2022-09-09T08:01:48;14.57;;;3.47;;
2177;SDS011;1095;50.992;6.798;2022-09-09T08:04:34;9.52;;;3.00;;
2177;SDS011;1095;50.992;6.798;2022-09-09T08:07:10;9.00;;;3.03;;
2177;SDS011;1095;50.992;6.798;2022-09-09T08:09:41;6.25;;;2.72;;
2177;SDS011;1095;50.992;6.798;2022-09-09T08:12:09;7.30;;;3.25;;
2177;SDS011;1095;50.992;6.798;2022-09-09T08:14:35;12.73;;;3.17;;
2177;SDS011;1095;50.992;6.798;2022-09-09T08:17:03;8.98;;;2.70;;
2177;SDS011;1095;50.992;6.798;2022-09-09T08:19:29;9.73;;;2.40;;
2177;SDS011;1095;50.992;6.798;2022-09-09T08:21:59;8.63;;;2.63;;
2177;SDS011;1095;50.992;6.798;2022-09-09T08:24:28;5.75;;;2.72;;
2177;SDS011;1095;50.992;6.798;2022-09-09T08:26:55;9.55;;;3.03;;
2177;SDS011;1095;50.992;6.798;2022-09-09T08:29:22;5.00;;;2.50;;
2177;SDS011;1095;50.992;6.798;2022-09-09T08:31:50;7.47;;;2.60;;
2177;SDS011;1095;50.992;6.798;2022-09-09T08:34:19;7.57;;;3.22;;
2177;SDS011;1095;50.992;6.798;2022-09-09T08:36:47;6.18;;;2.15;;
2177;SDS011;1095;50.992;6.798;2022-09-09T08:39:15;7.80;;;2.88;;
2177;SDS011;1095;50.992;6.798;2022-09-09T08:41:51;9.55;;;2.83;;
2177;SDS011;1095;50.992;6.798;2022-09-09T08:44:31;8.23;;;3.00;;
2177;SDS011;1095;50.992;6.798;2022-09-09T08:47:13;7.03;;;2.30;;
2177;SDS011;1095;50.992;6.798;2022-09-09T08:49:56;9.40;;;3.20;;
2177;SDS011;1095;50.992;6.798;2022-09-09T08:52:36;5.35;;;2.15;;
2177;SDS011;1095;50.992;6.798;2022-09-09T08:55:11;9.95;;;2.42;;
2177;SDS011;1095;50.992;6.798;2022-09-09T08:57:48;4.80;;;2.30;;
2177;SDS011;1095;50.992;6.798;2022-09-09T09:00:17;5.45;;;2.25;;
2177;SDS011;1095;50.992;6.798;2022-09-09T09:02:46;5.90;;;2.13;;
2177;SDS011;1095;50.992;6.798;2022-09-09T09:05:25;9.23;;;2.03;;
2177;SDS011;1095;50.992;6.798;2022-09-09T09:08:00;6.40;;;3.03;;
2177;SDS011;1095;50.992;6.798;2022-09-09T09:10:42;7.97;;;3.40;;
2177;SDS011;1095;50.992;6.798;2022-09-09T09:13:16;10.18;;;2.30;;
2177;SDS011;1095;50.992;6.798;2022-09-09T09:18:14;5.32;;;2.20;;
2177;SDS011;1095;50.992;6.798;2022-09-09T09:20:46;7.63;;;2.33;;
2177;SDS011;1095;50.992;6.798;2022-09-09T09:23:20;7.63;;;2.30;;
2177;SDS011;1095;50.992;6.798;2022-09-09T09:25:49;9.70;;;2.65;;
2177;SDS011;1095;50.992;6.798;2022-09-09T09:28:20;5.25;;;2.40;;
2177;SDS011;1095;50.992;6.798;2022-09-09T09:30:51;7.30;;;2.15;;
2177;SDS011;1095;50.992;6.798;2022-09-09T09:33:23;4.97;;;2.25;;
2177;SDS011;1095;50.992;6.798;2022-09-09T09:35:54;6.53;;;1.95;;
2177;SDS011;1095;50.992;6.798;2022-09-09T09:38:21;4.78;;;2.03;;
2177;SDS011;1095;50.992;6.798;2022-09-09T09:40:49;8.35;;;2.38;;
2177;SDS011;1095;50.992;6.798;2022-09-09T09:43:24;4.25;;;2.15;;
2177;SDS011;1095;50.992;6.798;2022-09-09T09:45:53;5.95;;;2.15;;
2177;SDS011;1095;50.992;6.798;2022-09-09T09:48:20;9.55;;;2.38;;
2177;SDS011;1095;50.992;6.798;2022-09-09T09:50:48;6.95;;;2.55;;
2177;SDS011;1095;50.992;6.798;2022-09-09T09:53:18;5.00;;;2.20;;
2177;SDS011;1095;50.992;6.798;2022-09-09T09:55:48;6.55;;;2.80;;
2177;SDS011;1095;50.992;6.798;2022-09-09T09:58:20;5.40;;;2.22;;
2177;SDS011;1095;50.992;6.798;2022-09-09T10:00:51;4.88;;;2.13;;
2177;SDS011;1095;50.992;6.798;2022-09-09T10:05:50;6.43;;;2.10;;
2177;SDS011;1095;50.992;6.798;2022-09-09T10:08:17;8.70;;;2.30;;
2177;SDS011;1095;50.992;6.798;2022-09-09T10:10:57;4.93;;;2.05;;
2177;SDS011;1095;50.992;6.798;2022-09-09T10:13:34;11.85;;;2.33;;
2177;SDS011;1095;50.992;6.798;2022-09-09T10:16:17;11.98;;;2.13;;
2177;SDS011;1095;50.992;6.798;2022-09-09T10:18:56;7.63;;;2.38;;
2177;SDS011;1095;50.992;6.798;2022-09-09T10:21:30;5.35;;;2.00;;
2177;SDS011;1095;50.992;6.798;2022-09-09T10:24:18;4.13;;;1.75;;
2177;SDS011;1095;50.992;6.798;2022-09-09T10:26:58;6.63;;;2.00;;
2177;SDS011;1095;50.992;6.798;2022-09-09T10:29:44;5.50;;;2.03;;
2177;SDS011;1095;50.992;6.798;2022-09-09T10:32:36;3.08;;;1.77;;
2177;SDS011;1095;50.992;6.798;2022-09-09T10:35:09;5.18;;;2.22;;
2177;SDS011;1095;50.992;6.798;2022-09-09T10:37:44;7.82;;;2.55;;
2177;SDS011;1095;50.992;6.798;2022-09-09T10:40:28;6.43;;;2.58;;
2177;SDS011;1095;50.992;6.798;2022-09-09T10:43:01;6.05;;;2.08;;
2177;SDS011;1095;50.992;6.798;2022-09-09T10:45:41;3.95;;;1.70;;
2177;SDS011;1095;50.992;6.798;2022-09-09T10:48:27;7.20;;;2.20;;
2177;SDS011;1095;50.992;6.798;2022-09-09T10:51:17;4.55;;;1.83;;
2177;SDS011;1095;50.992;6.798;2022-09-09T10:53:53;5.72;;;1.85;;
2177;SDS011;1095;50.992;6.798;2022-09-09T10:56:33;5.75;;;1.92;;
2177;SDS011;1095;50.992;6.798;2022-09-09T10:59:02;4.07;;;1.83;;
2177;SDS011;1095;50.992;6.798;2022-09-09T11:01:34;11.65;;;2.78;;
2177;SDS011;1095;50.992;6.798;2022-09-09T11:04:10;6.35;;;1.80;;
2177;SDS011;1095;50.992;6.798;2022-09-09T11:06:44;7.22;;;2.45;;
2177;SDS011;1095;50.992;6.798;2022-09-09T11:09:18;6.32;;;2.30;;
2177;SDS011;1095;50.992;6.798;2022-09-09T11:11:50;3.87;;;1.57;;
2177;SDS011;1095;50.992;6.798;2022-09-09T11:14:20;4.07;;;1.80;;
2177;SDS011;1095;50.992;6.798;2022-09-09T11:16:56;5.82;;;1.58;;
2177;SDS011;1095;50.992;6.798;2022-09-09T11:19:28;6.88;;;2.58;;
2177;SDS011;1095;50.992;6.798;2022-09-09T11:21:59;5.03;;;2.28;;
2177;SDS011;1095;50.992;6.798;2022-09-09T11:24:29;6.85;;;2.67;;
2177;SDS011;1095;50.992;6.798;2022-09-09T11:27:02;6.43;;;2.47;;
2177;SDS011;1095;50.992;6.798;2022-09-09T11:35:40;7.28;;;2.30;;
2177;SDS011;1095;50.992;6.798;2022-09-09T11:38:16;6.07;;;1.90;;
2177;SDS011;1095;50.992;6.798;2022-09-09T11:40:47;8.13;;;2.58;;
2177;SDS011;1095;50.992;6.798;2022-09-09T11:43:23;11.85;;;2.50;;
2177;SDS011;1095;50.992;6.798;2022-09-09T11:45:52;5.78;;;2.38;;
2177;SDS011;1095;50.992;6.798;2022-09-09T11:48:23;6.13;;;2.13;;
2177;SDS011;1095;50.992;6.798;2022-09-09T11:51:00;5.18;;;2.25;;
2177;SDS011;1095;50.992;6.798;2022-09-09T11:53:30;8.80;;;2.15;;
2177;SDS011;1095;50.992;6.798;2022-09-09T11:56:01;4.72;;;2.15;;
2177;SDS011;1095;50.992;6.798;2022-09-09T11:58:33;4.75;;;2.13;;
2177;SDS011;1095;50.992;6.798;2022-09-09T12:04:15;6.30;;;2.50;;
2177;SDS011;1095;50.992;6.798;2022-09-09T12:07:01;8.07;;;2.47;;
2177;SDS011;1095;50.992;6.798;2022-09-09T12:09:32;9.57;;;2.97;;
2177;SDS011;1095;50.992;6.798;2022-09-09T12:12:18;6.55;;;2.72;;
2177;SDS011;1095;50.992;6.798;2022-09-09T12:17:46;5.70;;;2.30;;
2177;SDS011;1095;50.992;6.798;2022-09-09T12:20:16;8.57;;;2.80;;
2177;SDS011;1095;50.992;6.798;2022-09-09T12:22:50;5.43;;;2.20;;
2177;SDS011;1095;50.992;6.798;2022-09-09T12:25:26;7.88;;;3.28;;
2177;SDS011;1095;50.992;6.798;2022-09-09T12:28:04;9.40;;;2.90;;
2177;SDS011;1095;50.992;6.798;2022-09-09T12:30:37;6.00;;;2.38;;
2177;SDS011;1095;50.992;6.798;2022-09-09T12:33:15;3.95;;;2.25;;
2177;SDS011;1095;50.992;6.798;2022-09-09T12:35:49;5.68;;;2.63;;
2177;SDS011;1095;50.992;6.798;2022-09-09T12:38:22;9.95;;;2.95;;
2177;SDS011;1095;50.992;6.798;2022-09-09T12:40:54;7.68;;;3.17;;
2177;SDS011;1095;50.992;6.798;2022-09-09T12:43:23;10.05;;;3.50;;
2177;SDS011;1095;50.992;6.798;2022-09-09T12:45:51;8.88;;;2.92;;
2177;SDS011;1095;50.992;6.798;2022-09-09T12:48:24;8.95;;;3.20;;
2177;SDS011;1095;50.992;6.798;2022-09-09T12:50:58;7.68;;;3.60;;
2177;SDS011;1095;50.992;6.798;2022-09-09T12:53:28;4.07;;;2.80;;
2177;SDS011;1095;50.992;6.798;2022-09-09T12:55:59;2.88;;;2.20;;
2177;SDS011;1095;50.992;6.798;2022-09-09T12:58:28;6.93;;;2.67;;
2177;SDS011;1095;50.992;6.798;2022-09-09T13:00:58;6.63;;;2.45;;
2177;SDS011;1095;50.992;6.798;2022-09-09T13:03:26;4.72;;;2.20;;
2177;SDS011;1095;50.992;6.798;2022-09-09T13:05:53;4.68;;;2.22;;
2177;SDS011;1095;50.992;6.798;2022-09-09T13:08:26;4.20;;;2.30;;
2177;SDS011;1095;50.992;6.798;2022-09-09T13:10:56;6.05;;;2.35;;
2177;SDS011;1095;50.992;6.798;2022-09-09T13:13:26;7.55;;;2.58;;
2177;SDS011;1095;50.992;6.798;2022-09-09T13:15:56;6.57;;;2.70;;
2177;SDS011;1095;50.992;6.798;2022-09-09T13:18:24;4.88;;;2.50;;
2177;SDS011;1095;50.992;6.798;2022-09-09T13:20:54;7.35;;;2.60;;
2177;SDS011;1095;50.992;6.798;2022-09-09T13:23:23;6.05;;;2.53;;
2177;SDS011;1095;50.992;6.798;2022-09-09T13:25:55;3.60;;;2.17;;
2177;SDS011;1095;50.992;6.798;2022-09-09T13:28:23;6.63;;;2.20;;
2177;SDS011;1095;50.992;6.798;2022-09-09T13:30:58;5.80;;;2.40;;
2177;SDS011;1095;50.992;6.798;2022-09-09T13:33:30;6.35;;;2.25;;
2177;SDS011;1095;50.992;6.798;2022-09-09T13:35:58;5.03;;;2.33;;
2177;SDS011;1095;50.992;6.798;2022-09-09T13:38:30;7.97;;;2.65;;
2177;SDS011;1095;50.992;6.798;2022-09-09T13:41:00;6.53;;;2.67;;
2177;SDS011;1095;50.992;6.798;2022-09-09T13:43:29;5.70;;;2.90;;
2177;SDS011;1095;50.992;6.798;2022-09-09T13:45:59;8.88;;;2.35;;
2177;SDS011;1095;50.992;6.798;2022-09-09T13:48:27;4.35;;;2.10;;
2177;SDS011;1095;50.992;6.798;2022-09-09T13:50:55;4.38;;;2.78;;
2177;SDS011;1095;50.992;6.798;2022-09-09T13:53:23;3.88;;;2.20;;
2177;SDS011;1095;50.992;6.798;2022-09-09T13:55:51;7.97;;;2.33;;
2177;SDS011;1095;50.992;6.798;2022-09-09T13:58:19;6.75;;;1.88;;
2177;SDS011;1095;50.992;6.798;2022-09-09T14:00:48;10.07;;;2.90;;
2177;SDS011;1095;50.992;6.798;2022-09-09T14:03:15;11.02;;;3.20;;
2177;SDS011;1095;50.992;6.798;2022-09-09T14:05:42;8.52;;;2.75;;
2177;SDS011;1095;50.992;6.798;2022-09-09T14:08:12;3.92;;;2.50;;
2177;SDS011;1095;50.992;6.798;2022-09-09T14:10:46;6.60;;;2.90;;
2177;SDS011;1095;50.992;6.798;2022-09-09T14:13:15;5.32;;;2.78;;
2177;SDS011;1095;50.992;6.798;2022-09-09T14:15:42;7.10;;;3.30;;
2177;SDS011;1095;50.992;6.798;2022-09-09T14:18:09;5.20;;;2.00;;
2177;SDS011;1095;50.992;6.798;2022-09-09T14:20:38;4.00;;;1.98;;
2177;SDS011;1095;50.992;6.798;2022-09-09T14:23:04;3.92;;;1.95;;
2177;SDS011;1095;50.992;6.798;2022-09-09T14:25:31;3.50;;;1.58;;
2177;SDS011;1095;50.992;6.798;2022-09-09T14:27:58;3.53;;;2.17;;
2177;SDS011;1095;50.992;6.798;2022-09-09T14:30:26;6.72;;;3.05;;
2177;SDS011;1095;50.992;6.798;2022-09-09T14:32:53;6.65;;;2.35;;
2177;SDS011;1095;50.992;6.798;2022-09-09T14:35:19;6.45;;;2.30;;
2177;SDS011;1095;50.992;6.798;2022-09-09T14:37:47;3.78;;;2.00;;
2177;SDS011;1095;50.992;6.798;2022-09-09T14:40:13;3.70;;;2.20;;
2177;SDS011;1095;50.992;6.798;2022-09-09T14:42:41;4.53;;;2.30;;
2177;SDS011;1095;50.992;6.798;2022-09-09T14:45:08;5.93;;;2.78;;
2177;SDS011;1095;50.992;6.798;2022-09-09T14:47:37;4.03;;;2.17;;
2177;SDS011;1095;50.992;6.798;2022-09-09T14:50:04;4.47;;;2.35;;
2177;SDS011;1095;50.992;6.798;2022-09-09T14:52:33;4.18;;;2.22;;
2177;SDS011;1095;50.992;6.798;2022-09-09T14:54:59;3.08;;;2.10;;
2177;SDS011;1095;50.992;6.798;2022-09-09T14:57:26;3.03;;;1.92;;
2177;SDS011;1095;50.992;6.798;2022-09-09T14:59:53;3.40;;;1.83;;
2177;SDS011;1095;50.992;6.798;2022-09-09T15:02:19;3.85;;;1.70;;
2177;SDS011;1095;50.992;6.798;2022-09-09T15:04:47;3.88;;;2.10;;
2177;SDS011;1095;50.992;6.798;2022-09-09T15:07:15;6.85;;;2.28;;
2177;SDS011;1095;50.992;6.798;2022-09-09T15:09:41;3.92;;;1.50;;
2177;SDS011;1095;50.992;6.798;2022-09-09T15:12:08;4.05;;;2.15;;
2177;SDS011;1095;50.992;6.798;2022-09-09T15:14:35;5.00;;;1.63;;
2177;SDS011;1095;50.992;6.798;2022-09-09T15:17:03;3.45;;;1.48;;
2177;SDS011;1095;50.992;6.798;2022-09-09T15:19:30;3.03;;;1.50;;
2177;SDS011;1095;50.992;6.798;2022-09-09T15:21:58;3.15;;;2.03;;
2177;SDS011;1095;50.992;6.798;2022-09-09T15:24:25;4.10;;;2.67;;
2177;SDS011;1095;50.992;6.798;2022-09-09T15:26:52;4.97;;;2.38;;
2177;SDS011;1095;50.992;6.798;2022-09-09T15:29:18;2.92;;;2.13;;
2177;SDS011;1095;50.992;6.798;2022-09-09T15:31:45;4.10;;;2.20;;
2177;SDS011;1095;50.992;6.798;2022-09-09T15:34:12;5.28;;;1.98;;
2177;SDS011;1095;50.992;6.798;2022-09-09T15:36:39;4.72;;;2.45;;
2177;SDS011;1095;50.992;6.798;2022-09-09T15:39:09;4.25;;;2.08;;
2177;SDS011;1095;50.992;6.798;2022-09-09T15:41:37;5.80;;;1.90;;
2177;SDS011;1095;50.992;6.798;2022-09-09T15:44:04;4.18;;;1.65;;
2177;SDS011;1095;50.992;6.798;2022-09-09T15:46:32;4.07;;;2.05;;
2177;SDS011;1095;50.992;6.798;2022-09-09T15:49:05;3.83;;;1.83;;
2177;SDS011;1095;50.992;6.798;2022-09-09T15:51:34;3.70;;;2.00;;
2177;SDS011;1095;50.992;6.798;2022-09-09T15:54:01;5.72;;;2.58;;
2177;SDS011;1095;50.992;6.798;2022-09-09T15:56:29;3.08;;;1.92;;
2177;SDS011;1095;50.992;6.798;2022-09-09T15:58:57;9.65;;;2.70;;
2177;SDS011;1095;50.992;6.798;2022-09-09T16:01:25;2.13;;;1.70;;
2177;SDS011;1095;50.992;6.798;2022-09-09T16:03:52;6.10;;;2.13;;
2177;SDS011;1095;50.992;6.798;2022-09-09T16:06:20;4.45;;;1.50;;
2177;SDS011;1095;50.992;6.798;2022-09-09T16:08:48;6.03;;;1.77;;
2177;SDS011;1095;50.992;6.798;2022-09-09T16:11:17;2.72;;;1.50;;
2177;SDS011;1095;50.992;6.798;2022-09-09T16:13:46;1.83;;;1.13;;